sensor_id;sensor_type;location;lat;lon;timestamp;temperature;humidity
30678;DHT22;17437;47.188;8.896;2023-04-24T00:00:24;10.20;99.90
30678;DHT22;17437;47.188;8.896;2023-04-24T00:02:56;10.20;99.90
30678;DHT22;17437;47.188;8.896;2023-04-24T00:05:28;10.30;99.90
30678;DHT22;17437;47.188;8.896;2023-04-24T00:08:00;10.20;99.90
30678;DHT22;17437;47.188;8.896;2023-04-24T00:10:31;10.20;99.90
30678;DHT22;17437;47.188;8.896;2023-04-24T00:13:03;10.10;99.90
30678;DHT22;17437;47.188;8.896;2023-04-24T00:15:34;10.10;99.90
30678;DHT22;17437;47.188;8.896;2023-04-24T00:18:06;10.20;99.90
30678;DHT22;17437;47.188;8.896;2023-04-24T00:20:37;10.20;99.90
30678;DHT22;17437;47.188;8.896;2023-04-24T00:23:10;10.20;99.90
30678;DHT22;17437;47.188;8.896;2023-04-24T00:25:41;10.10;99.90
30678;DHT22;17437;47.188;8.896;2023-04-24T00:28:13;10.10;99.90
30678;DHT22;17437;47.188;8.896;2023-04-24T00:30:44;10.10;99.90
30678;DHT22;17437;47.188;8.896;2023-04-24T00:33:16;10.20;99.90
30678;DHT22;17437;47.188;8.896;2023-04-24T00:35:48;10.20;99.90
30678;DHT22;17437;47.188;8.896;2023-04-24T00:38:19;10.20;99.90
30678;DHT22;17437;47.188;8.896;2023-04-24T00:40:52;10.20;99.90
30678;DHT22;17437;47.188;8.896;2023-04-24T00:43:24;10.10;99.90
30678;DHT22;17437;47.188;8.896;2023-04-24T00:45:56;10.20;99.90
30678;DHT22;17437;47.188;8.896;2023-04-24T00:48:30;10.20;99.90
30678;DHT22;17437;47.188;8.896;2023-04-24T00:51:03;10.20;99.90
30678;DHT22;17437;47.188;8.896;2023-04-24T00:53:34;10.30;99.90
30678;DHT22;17437;47.188;8.896;2023-04-24T00:56:06;10.30;99.90
30678;DHT22;17437;47.188;8.896;2023-04-24T00:58:38;10.30;99.90
30678;DHT22;17437;47.188;8.896;2023-04-24T01:01:10;10.30;99.90
30678;DHT22;17437;47.188;8.896;2023-04-24T01:03:42;10.20;99.90
30678;DHT22;17437;47.188;8.896;2023-04-24T01:06:14;10.20;99.90
30678;DHT22;17437;47.188;8.896;2023-04-24T01:08:47;10.20;99.90
30678;DHT22;17437;47.188;8.896;2023-04-24T01:11:19;10.20;99.90
30678;DHT22;17437;47.188;8.896;2023-04-24T01:13:52;10.10;99.90
30678;DHT22;17437;47.188;8.896;2023-04-24T01:16:24;10.10;99.90
30678;DHT22;17437;47.188;8.896;2023-04-24T01:18:56;10.00;99.90
30678;DHT22;17437;47.188;8.896;2023-04-24T01:21:28;10.00;99.90
30678;DHT22;17437;47.188;8.896;2023-04-24T01:24:01;9.90;99.90
30678;DHT22;17437;47.188;8.896;2023-04-24T01:26:33;9.90;99.90
30678;DHT22;17437;47.188;8.896;2023-04-24T01:29:05;9.90;99.90
30678;DHT22;17437;47.188;8.896;2023-04-24T01:31:37;9.90;99.90
30678;DHT22;17437;47.188;8.896;2023-04-24T01:34:09;9.90;99.90
30678;DHT22;17437;47.188;8.896;2023-04-24T01:36:42;9.80;99.90
30678;DHT22;17437;47.188;8.896;2023-04-24T01:39:14;9.80;99.90
30678;DHT22;17437;47.188;8.896;2023-04-24T01:41:46;9.80;99.90
30678;DHT22;17437;47.188;8.896;2023-04-24T01:44:20;9.80;99.90
30678;DHT22;17437;47.188;8.896;2023-04-24T01:46:52;9.80;99.90
30678;DHT22;17437;47.188;8.896;2023-04-24T01:49:24;9.80;99.90
30678;DHT22;17437;47.188;8.896;2023-04-24T01:51:56;9.80;99.90
30678;DHT22;17437;47.188;8.896;2023-04-24T01:54:28;9.70;99.90
30678;DHT22;17437;47.188;8.896;2023-04-24T01:57:00;9.70;99.90
30678;DHT22;17437;47.188;8.896;2023-04-24T01:59:34;9.70;99.90
30678;DHT22;17437;47.188;8.896;2023-04-24T02:02:06;9.70;99.90
30678;DHT22;17437;47.188;8.896;2023-04-24T02:04:38;9.70;99.90
30678;DHT22;17437;47.188;8.896;2023-04-24T02:07:10;9.70;99.90
30678;DHT22;17437;47.188;8.896;2023-04-24T02:09:42;9.70;99.90
30678;DHT22;17437;47.188;8.896;2023-04-24T02:12:14;9.60;99.90
30678;DHT22;17437;47.188;8.896;2023-04-24T02:14:46;9.70;99.90
30678;DHT22;17437;47.188;8.896;2023-04-24T02:17:18;9.70;99.90
30678;DHT22;17437;47.188;8.896;2023-04-24T02:19:49;9.70;99.90
30678;DHT22;17437;47.188;8.896;2023-04-24T02:22:21;9.70;99.90
30678;DHT22;17437;47.188;8.896;2023-04-24T02:24:52;9.60;99.90
30678;DHT22;17437;47.188;8.896;2023-04-24T02:27:24;9.60;99.90
30678;DHT22;17437;47.188;8.896;2023-04-24T02:29:55;9.70;99.90
30678;DHT22;17437;47.188;8.896;2023-04-24T02:32:26;9.60;99.90
30678;DHT22;17437;47.188;8.896;2023-04-24T02:34:58;9.60;99.90
30678;DHT22;17437;47.188;8.896;2023-04-24T02:37:30;9.60;99.90
30678;DHT22;17437;47.188;8.896;2023-04-24T02:40:01;9.60;99.90
30678;DHT22;17437;47.188;8.896;2023-04-24T02:42:34;9.60;99.90
30678;DHT22;17437;47.188;8.896;2023-04-24T02:45:07;9.60;99.90
30678;DHT22;17437;47.188;8.896;2023-04-24T02:47:39;9.60;99.90
30678;DHT22;17437;47.188;8.896;2023-04-24T02:50:11;9.60;99.90
30678;DHT22;17437;47.188;8.896;2023-04-24T02:52:42;9.60;99.90
30678;DHT22;17437;47.188;8.896;2023-04-24T02:55:14;9.50;99.90
30678;DHT22;17437;47.188;8.896;2023-04-24T02:57:46;9.50;99.90
30678;DHT22;17437;47.188;8.896;2023-04-24T03:00:18;9.60;99.90
30678;DHT22;17437;47.188;8.896;2023-04-24T03:02:49;9.50;99.90
30678;DHT22;17437;47.188;8.896;2023-04-24T03:05:21;9.60;99.90
30678;DHT22;17437;47.188;8.896;2023-04-24T03:07:53;9.50;99.90
30678;DHT22;17437;47.188;8.896;2023-04-24T03:10:24;9.50;99.90
30678;DHT22;17437;47.188;8.896;2023-04-24T03:12:56;9.50;99.90
30678;DHT22;17437;47.188;8.896;2023-04-24T03:15:28;9.50;99.90
30678;DHT22;17437;47.188;8.896;2023-04-24T03:17:59;9.50;99.90
30678;DHT22;17437;47.188;8.896;2023-04-24T03:20:31;9.40;99.90
30678;DHT22;17437;47.188;8.896;2023-04-24T03:23:03;9.40;99.90
30678;DHT22;17437;47.188;8.896;2023-04-24T03:25:34;9.50;99.90
30678;DHT22;17437;47.188;8.896;2023-04-24T03:28:06;9.50;99.90
30678;DHT22;17437;47.188;8.896;2023-04-24T03:30:37;9.50;99.90
30678;DHT22;17437;47.188;8.896;2023-04-24T03:33:09;9.50;99.90
30678;DHT22;17437;47.188;8.896;2023-04-24T03:35:40;9.50;99.90
30678;DHT22;17437;47.188;8.896;2023-04-24T03:38:13;9.50;99.90
30678;DHT22;17437;47.188;8.896;2023-04-24T03:40:44;9.50;99.90
30678;DHT22;17437;47.188;8.896;2023-04-24T03:43:18;9.60;99.90
30678;DHT22;17437;47.188;8.896;2023-04-24T03:45:49;9.60;99.90
30678;DHT22;17437;47.188;8.896;2023-04-24T03:48:22;9.60;99.90
30678;DHT22;17437;47.188;8.896;2023-04-24T03:50:53;9.60;99.90
30678;DHT22;17437;47.188;8.896;2023-04-24T03:53:24;9.50;99.90
30678;DHT22;17437;47.188;8.896;2023-04-24T03:55:56;9.60;99.90
30678;DHT22;17437;47.188;8.896;2023-04-24T03:58:29;9.60;99.90
30678;DHT22;17437;47.188;8.896;2023-04-24T04:01:00;9.50;99.90
30678;DHT22;17437;47.188;8.896;2023-04-24T04:03:32;9.50;99.90
30678;DHT22;17437;47.188;8.896;2023-04-24T04:06:04;9.50;99.90
30678;DHT22;17437;47.188;8.896;2023-04-24T04:08:36;9.50;99.90
30678;DHT22;17437;47.188;8.896;2023-04-24T04:11:07;9.60;99.90
30678;DHT22;17437;47.188;8.896;2023-04-24T04:13:39;9.60;99.90
30678;DHT22;17437;47.188;8.896;2023-04-24T04:16:10;9.60;99.90
30678;DHT22;17437;47.188;8.896;2023-04-24T04:18:42;9.50;99.90
30678;DHT22;17437;47.188;8.896;2023-04-24T04:21:13;9.50;99.90
30678;DHT22;17437;47.188;8.896;2023-04-24T04:23:45;9.50;99.90
30678;DHT22;17437;47.188;8.896;2023-04-24T04:26:17;9.50;99.90
30678;DHT22;17437;47.188;8.896;2023-04-24T04:28:49;9.50;99.90
30678;DHT22;17437;47.188;8.896;2023-04-24T04:31:21;9.50;99.90
30678;DHT22;17437;47.188;8.896;2023-04-24T04:33:53;9.50;99.90
30678;DHT22;17437;47.188;8.896;2023-04-24T04:36:25;9.50;99.90
30678;DHT22;17437;47.188;8.896;2023-04-24T04:38:57;9.60;99.90
30678;DHT22;17437;47.188;8.896;2023-04-24T04:41:29;9.50;99.90
30678;DHT22;17437;47.188;8.896;2023-04-24T04:44:01;9.50;99.90
30678;DHT22;17437;47.188;8.896;2023-04-24T04:46:34;9.50;99.90
30678;DHT22;17437;47.188;8.896;2023-04-24T04:49:07;9.50;99.90
30678;DHT22;17437;47.188;8.896;2023-04-24T04:51:39;9.60;99.90
30678;DHT22;17437;47.188;8.896;2023-04-24T04:54:12;9.50;99.90
30678;DHT22;17437;47.188;8.896;2023-04-24T04:56:43;9.50;99.90
30678;DHT22;17437;47.188;8.896;2023-04-24T04:59:15;9.50;99.90
30678;DHT22;17437;47.188;8.896;2023-04-24T05:01:46;9.50;99.90
30678;DHT22;17437;47.188;8.896;2023-04-24T05:04:18;9.50;99.90
30678;DHT22;17437;47.188;8.896;2023-04-24T05:06:50;9.50;99.90
30678;DHT22;17437;47.188;8.896;2023-04-24T05:09:21;9.60;99.90
30678;DHT22;17437;47.188;8.896;2023-04-24T05:11:53;9.50;99.90
30678;DHT22;17437;47.188;8.896;2023-04-24T05:14:25;9.50;99.90
30678;DHT22;17437;47.188;8.896;2023-04-24T05:16:58;9.50;99.90
30678;DHT22;17437;47.188;8.896;2023-04-24T05:19:31;9.60;99.90
30678;DHT22;17437;47.188;8.896;2023-04-24T05:22:04;9.60;99.90
30678;DHT22;17437;47.188;8.896;2023-04-24T05:24:37;9.70;99.90
30678;DHT22;17437;47.188;8.896;2023-04-24T05:27:08;9.70;99.90
30678;DHT22;17437;47.188;8.896;2023-04-24T05:29:40;9.70;99.90
30678;DHT22;17437;47.188;8.896;2023-04-24T05:32:12;9.70;99.90
30678;DHT22;17437;47.188;8.896;2023-04-24T05:34:44;9.80;99.90
30678;DHT22;17437;47.188;8.896;2023-04-24T05:37:16;9.80;99.90
30678;DHT22;17437;47.188;8.896;2023-04-24T05:39:48;9.80;99.90
30678;DHT22;17437;47.188;8.896;2023-04-24T05:42:19;9.80;99.90
30678;DHT22;17437;47.188;8.896;2023-04-24T05:44:51;9.80;99.90
30678;DHT22;17437;47.188;8.896;2023-04-24T05:47:25;9.80;99.90
30678;DHT22;17437;47.188;8.896;2023-04-24T05:49:57;9.90;99.90
30678;DHT22;17437;47.188;8.896;2023-04-24T05:52:31;10.00;99.90
30678;DHT22;17437;47.188;8.896;2023-04-24T05:55:07;10.10;99.90
30678;DHT22;17437;47.188;8.896;2023-04-24T05:57:38;10.10;99.90
30678;DHT22;17437;47.188;8.896;2023-04-24T06:00:12;10.10;99.90
30678;DHT22;17437;47.188;8.896;2023-04-24T06:02:45;10.20;99.90
30678;DHT22;17437;47.188;8.896;2023-04-24T06:05:20;10.20;99.90
30678;DHT22;17437;47.188;8.896;2023-04-24T06:07:52;10.20;99.90
30678;DHT22;17437;47.188;8.896;2023-04-24T06:10:24;10.00;99.90
30678;DHT22;17437;47.188;8.896;2023-04-24T06:12:55;9.90;99.90
30678;DHT22;17437;47.188;8.896;2023-04-24T06:15:30;9.80;99.90
30678;DHT22;17437;47.188;8.896;2023-04-24T06:18:01;9.70;99.90
30678;DHT22;17437;47.188;8.896;2023-04-24T06:20:35;9.60;99.90
30678;DHT22;17437;47.188;8.896;2023-04-24T06:23:06;9.50;99.90
30678;DHT22;17437;47.188;8.896;2023-04-24T06:25:38;9.40;99.90
30678;DHT22;17437;47.188;8.896;2023-04-24T06:28:10;9.50;99.90
30678;DHT22;17437;47.188;8.896;2023-04-24T06:30:41;9.50;99.90
30678;DHT22;17437;47.188;8.896;2023-04-24T06:33:13;9.50;99.90
30678;DHT22;17437;47.188;8.896;2023-04-24T06:35:47;9.50;99.90
30678;DHT22;17437;47.188;8.896;2023-04-24T06:38:18;9.60;99.90
30678;DHT22;17437;47.188;8.896;2023-04-24T06:40:54;9.70;99.90
30678;DHT22;17437;47.188;8.896;2023-04-24T06:43:25;9.90;99.90
30678;DHT22;17437;47.188;8.896;2023-04-24T06:45:58;10.10;99.90
30678;DHT22;17437;47.188;8.896;2023-04-24T06:48:29;10.40;99.90
30678;DHT22;17437;47.188;8.896;2023-04-24T06:51:01;10.60;99.90
30678;DHT22;17437;47.188;8.896;2023-04-24T06:53:32;10.80;99.90
30678;DHT22;17437;47.188;8.896;2023-04-24T06:56:04;11.00;99.90
30678;DHT22;17437;47.188;8.896;2023-04-24T06:58:36;11.20;99.90
30678;DHT22;17437;47.188;8.896;2023-04-24T07:01:07;11.50;99.90
30678;DHT22;17437;47.188;8.896;2023-04-24T07:03:40;12.40;99.90
30678;DHT22;17437;47.188;8.896;2023-04-24T07:06:12;12.80;99.90
30678;DHT22;17437;47.188;8.896;2023-04-24T07:08:44;12.40;99.90
30678;DHT22;17437;47.188;8.896;2023-04-24T07:11:16;12.10;99.90
30678;DHT22;17437;47.188;8.896;2023-04-24T07:13:48;11.80;99.90
30678;DHT22;17437;47.188;8.896;2023-04-24T07:16:20;11.60;99.90
30678;DHT22;17437;47.188;8.896;2023-04-24T07:18:51;11.60;99.90
30678;DHT22;17437;47.188;8.896;2023-04-24T07:21:23;11.60;99.90
30678;DHT22;17437;47.188;8.896;2023-04-24T07:23:56;11.60;99.90
30678;DHT22;17437;47.188;8.896;2023-04-24T07:26:29;11.70;99.90
30678;DHT22;17437;47.188;8.896;2023-04-24T07:29:01;11.70;99.90
30678;DHT22;17437;47.188;8.896;2023-04-24T07:31:33;11.70;99.90
30678;DHT22;17437;47.188;8.896;2023-04-24T07:34:04;11.50;99.90
30678;DHT22;17437;47.188;8.896;2023-04-24T07:36:36;11.40;99.90
30678;DHT22;17437;47.188;8.896;2023-04-24T07:39:08;11.20;99.90
30678;DHT22;17437;47.188;8.896;2023-04-24T07:41:40;11.00;99.90
30678;DHT22;17437;47.188;8.896;2023-04-24T07:44:11;10.90;99.90
30678;DHT22;17437;47.188;8.896;2023-04-24T07:46:43;10.90;99.90
30678;DHT22;17437;47.188;8.896;2023-04-24T07:49:15;10.80;99.90
30678;DHT22;17437;47.188;8.896;2023-04-24T07:51:50;10.80;99.90
30678;DHT22;17437;47.188;8.896;2023-04-24T07:54:21;10.00;99.90
30678;DHT22;17437;47.188;8.896;2023-04-24T07:56:53;9.20;99.90
30678;DHT22;17437;47.188;8.896;2023-04-24T07:59:24;8.70;99.90
30678;DHT22;17437;47.188;8.896;2023-04-24T08:01:56;8.50;99.90
30678;DHT22;17437;47.188;8.896;2023-04-24T08:04:28;8.40;99.90
30678;DHT22;17437;47.188;8.896;2023-04-24T08:07:00;8.40;99.90
30678;DHT22;17437;47.188;8.896;2023-04-24T08:09:31;8.60;99.90
30678;DHT22;17437;47.188;8.896;2023-04-24T08:12:03;8.80;99.90
30678;DHT22;17437;47.188;8.896;2023-04-24T08:14:34;9.10;99.90
30678;DHT22;17437;47.188;8.896;2023-04-24T08:17:06;9.30;99.90
30678;DHT22;17437;47.188;8.896;2023-04-24T08:19:41;9.40;99.90
30678;DHT22;17437;47.188;8.896;2023-04-24T08:22:15;9.50;99.90
30678;DHT22;17437;47.188;8.896;2023-04-24T08:24:46;9.80;99.90
30678;DHT22;17437;47.188;8.896;2023-04-24T08:27:18;10.00;99.90
30678;DHT22;17437;47.188;8.896;2023-04-24T08:29:50;10.30;99.90
30678;DHT22;17437;47.188;8.896;2023-04-24T08:32:21;10.60;99.90
30678;DHT22;17437;47.188;8.896;2023-04-24T08:34:53;11.00;99.90
30678;DHT22;17437;47.188;8.896;2023-04-24T08:37:27;11.30;99.90
30678;DHT22;17437;47.188;8.896;2023-04-24T08:39:59;11.70;99.90
30678;DHT22;17437;47.188;8.896;2023-04-24T08:42:31;12.00;99.90
30678;DHT22;17437;47.188;8.896;2023-04-24T08:45:04;12.20;99.90
30678;DHT22;17437;47.188;8.896;2023-04-24T08:47:38;12.40;99.90
30678;DHT22;17437;47.188;8.896;2023-04-24T08:50:11;12.50;99.90
30678;DHT22;17437;47.188;8.896;2023-04-24T08:52:43;12.60;99.90
30678;DHT22;17437;47.188;8.896;2023-04-24T08:55:15;12.70;99.90
30678;DHT22;17437;47.188;8.896;2023-04-24T08:57:52;12.80;99.90
30678;DHT22;17437;47.188;8.896;2023-04-24T09:00:24;12.80;99.90
30678;DHT22;17437;47.188;8.896;2023-04-24T09:02:57;12.80;99.90
30678;DHT22;17437;47.188;8.896;2023-04-24T09:05:29;12.90;99.90
30678;DHT22;17437;47.188;8.896;2023-04-24T09:08:03;13.10;99.90
30678;DHT22;17437;47.188;8.896;2023-04-24T09:10:35;13.40;99.90
30678;DHT22;17437;47.188;8.896;2023-04-24T09:13:07;13.40;99.90
30678;DHT22;17437;47.188;8.896;2023-04-24T09:15:42;12.80;99.90
30678;DHT22;17437;47.188;8.896;2023-04-24T09:18:13;12.20;99.90
30678;DHT22;17437;47.188;8.896;2023-04-24T09:21:02;11.50;99.90
30678;DHT22;17437;47.188;8.896;2023-04-24T09:23:34;11.20;99.90
30678;DHT22;17437;47.188;8.896;2023-04-24T09:26:05;11.00;99.90
30678;DHT22;17437;47.188;8.896;2023-04-24T09:28:38;11.10;99.90
30678;DHT22;17437;47.188;8.896;2023-04-24T09:31:14;11.30;99.90
30678;DHT22;17437;47.188;8.896;2023-04-24T09:33:55;11.40;99.90
30678;DHT22;17437;47.188;8.896;2023-04-24T09:36:30;11.60;99.90
30678;DHT22;17437;47.188;8.896;2023-04-24T09:39:06;11.50;99.90
30678;DHT22;17437;47.188;8.896;2023-04-24T09:41:45;11.40;99.90
30678;DHT22;17437;47.188;8.896;2023-04-24T09:44:18;11.10;99.90
30678;DHT22;17437;47.188;8.896;2023-04-24T09:46:52;10.90;99.90
30678;DHT22;17437;47.188;8.896;2023-04-24T09:49:26;10.60;99.90
30678;DHT22;17437;47.188;8.896;2023-04-24T09:52:04;10.30;99.90
30678;DHT22;17437;47.188;8.896;2023-04-24T09:54:37;10.10;99.90
30678;DHT22;17437;47.188;8.896;2023-04-24T09:57:09;10.00;99.90
30678;DHT22;17437;47.188;8.896;2023-04-24T09:59:45;10.10;99.90
30678;DHT22;17437;47.188;8.896;2023-04-24T10:02:18;10.40;99.90
30678;DHT22;17437;47.188;8.896;2023-04-24T10:04:56;10.60;99.90
30678;DHT22;17437;47.188;8.896;2023-04-24T10:07:33;10.70;99.90
30678;DHT22;17437;47.188;8.896;2023-04-24T10:10:06;10.70;99.90
30678;DHT22;17437;47.188;8.896;2023-04-24T10:12:37;10.80;99.90
30678;DHT22;17437;47.188;8.896;2023-04-24T10:15:11;10.90;99.90
30678;DHT22;17437;47.188;8.896;2023-04-24T10:17:45;11.20;99.90
30678;DHT22;17437;47.188;8.896;2023-04-24T10:20:21;11.50;99.90
30678;DHT22;17437;47.188;8.896;2023-04-24T10:22:56;11.70;99.90
30678;DHT22;17437;47.188;8.896;2023-04-24T10:25:30;11.70;99.90
30678;DHT22;17437;47.188;8.896;2023-04-24T10:28:03;11.70;99.90
30678;DHT22;17437;47.188;8.896;2023-04-24T10:30:37;11.70;99.90
30678;DHT22;17437;47.188;8.896;2023-04-24T10:33:27;11.60;99.90
30678;DHT22;17437;47.188;8.896;2023-04-24T10:36:01;11.60;99.90
30678;DHT22;17437;47.188;8.896;2023-04-24T10:38:33;11.80;99.90
30678;DHT22;17437;47.188;8.896;2023-04-24T10:41:09;12.00;99.90
30678;DHT22;17437;47.188;8.896;2023-04-24T10:43:43;12.10;99.90
30678;DHT22;17437;47.188;8.896;2023-04-24T10:46:19;12.10;99.90
30678;DHT22;17437;47.188;8.896;2023-04-24T10:48:54;12.00;99.90
30678;DHT22;17437;47.188;8.896;2023-04-24T10:51:42;12.00;99.90
30678;DHT22;17437;47.188;8.896;2023-04-24T10:54:21;12.10;99.90
30678;DHT22;17437;47.188;8.896;2023-04-24T10:56:53;12.40;99.90
30678;DHT22;17437;47.188;8.896;2023-04-24T10:59:26;12.50;99.90
30678;DHT22;17437;47.188;8.896;2023-04-24T11:01:57;12.50;99.90
30678;DHT22;17437;47.188;8.896;2023-04-24T11:04:33;12.40;99.90
30678;DHT22;17437;47.188;8.896;2023-04-24T11:07:05;12.30;99.90
30678;DHT22;17437;47.188;8.896;2023-04-24T11:09:37;12.00;99.90
30678;DHT22;17437;47.188;8.896;2023-04-24T11:12:11;11.80;99.90
30678;DHT22;17437;47.188;8.896;2023-04-24T11:15:04;11.70;99.90
30678;DHT22;17437;47.188;8.896;2023-04-24T11:17:37;11.60;99.90
30678;DHT22;17437;47.188;8.896;2023-04-24T11:20:16;11.50;99.90
30678;DHT22;17437;47.188;8.896;2023-04-24T11:22:47;11.80;99.90
30678;DHT22;17437;47.188;8.896;2023-04-24T11:25:19;12.20;99.90
30678;DHT22;17437;47.188;8.896;2023-04-24T11:28:03;12.40;99.90
30678;DHT22;17437;47.188;8.896;2023-04-24T11:30:34;12.50;99.90
30678;DHT22;17437;47.188;8.896;2023-04-24T11:33:07;12.30;99.90
30678;DHT22;17437;47.188;8.896;2023-04-24T11:35:41;11.90;99.90
30678;DHT22;17437;47.188;8.896;2023-04-24T11:38:15;11.80;99.90
30678;DHT22;17437;47.188;8.896;2023-04-24T11:40:50;11.70;99.90
30678;DHT22;17437;47.188;8.896;2023-04-24T11:43:22;11.50;99.90
30678;DHT22;17437;47.188;8.896;2023-04-24T11:45:54;11.40;99.90
30678;DHT22;17437;47.188;8.896;2023-04-24T11:48:26;11.40;99.90
30678;DHT22;17437;47.188;8.896;2023-04-24T11:50:58;11.40;99.90
30678;DHT22;17437;47.188;8.896;2023-04-24T11:53:31;11.60;99.90
30678;DHT22;17437;47.188;8.896;2023-04-24T11:56:04;11.80;99.90
30678;DHT22;17437;47.188;8.896;2023-04-24T11:58:36;12.00;99.90
30678;DHT22;17437;47.188;8.896;2023-04-24T12:01:08;12.40;99.90
30678;DHT22;17437;47.188;8.896;2023-04-24T12:03:39;13.00;99.90
30678;DHT22;17437;47.188;8.896;2023-04-24T12:06:15;13.20;99.90
30678;DHT22;17437;47.188;8.896;2023-04-24T12:08:49;13.50;99.90
30678;DHT22;17437;47.188;8.896;2023-04-24T12:11:22;13.90;99.90
30678;DHT22;17437;47.188;8.896;2023-04-24T12:13:54;14.20;99.90
30678;DHT22;17437;47.188;8.896;2023-04-24T12:16:27;14.30;99.90
30678;DHT22;17437;47.188;8.896;2023-04-24T12:19:00;14.50;99.90
30678;DHT22;17437;47.188;8.896;2023-04-24T12:21:34;14.40;99.90
30678;DHT22;17437;47.188;8.896;2023-04-24T12:24:07;14.50;99.90
30678;DHT22;17437;47.188;8.896;2023-04-24T12:26:43;14.50;99.90
30678;DHT22;17437;47.188;8.896;2023-04-24T12:29:21;14.40;99.90
30678;DHT22;17437;47.188;8.896;2023-04-24T12:31:53;14.50;99.90
30678;DHT22;17437;47.188;8.896;2023-04-24T12:34:26;14.80;99.90
30678;DHT22;17437;47.188;8.896;2023-04-24T12:37:10;14.90;99.90
30678;DHT22;17437;47.188;8.896;2023-04-24T12:40:00;14.80;99.90
30678;DHT22;17437;47.188;8.896;2023-04-24T12:42:32;15.00;99.90
30678;DHT22;17437;47.188;8.896;2023-04-24T12:45:07;15.00;99.90
30678;DHT22;17437;47.188;8.896;2023-04-24T12:47:39;15.00;99.90
30678;DHT22;17437;47.188;8.896;2023-04-24T12:50:12;14.90;99.90
30678;DHT22;17437;47.188;8.896;2023-04-24T12:52:44;14.80;99.90
30678;DHT22;17437;47.188;8.896;2023-04-24T12:55:16;14.40;99.90
30678;DHT22;17437;47.188;8.896;2023-04-24T12:57:47;14.20;99.90
30678;DHT22;17437;47.188;8.896;2023-04-24T13:00:19;14.20;99.90
30678;DHT22;17437;47.188;8.896;2023-04-24T13:02:51;14.10;99.90
30678;DHT22;17437;47.188;8.896;2023-04-24T13:05:23;14.10;99.90
30678;DHT22;17437;47.188;8.896;2023-04-24T13:07:55;14.20;99.90
30678;DHT22;17437;47.188;8.896;2023-04-24T13:10:26;14.30;99.90
30678;DHT22;17437;47.188;8.896;2023-04-24T13:12:59;14.30;99.90
30678;DHT22;17437;47.188;8.896;2023-04-24T13:15:30;14.40;99.90
30678;DHT22;17437;47.188;8.896;2023-04-24T13:18:02;14.50;99.90
30678;DHT22;17437;47.188;8.896;2023-04-24T13:20:33;14.80;99.90
30678;DHT22;17437;47.188;8.896;2023-04-24T13:23:06;15.20;99.90
30678;DHT22;17437;47.188;8.896;2023-04-24T13:25:37;15.50;99.90
30678;DHT22;17437;47.188;8.896;2023-04-24T13:28:10;15.70;99.90
30678;DHT22;17437;47.188;8.896;2023-04-24T13:30:42;15.90;99.90
30678;DHT22;17437;47.188;8.896;2023-04-24T13:33:13;16.10;99.90
30678;DHT22;17437;47.188;8.896;2023-04-24T13:35:44;16.20;99.90
30678;DHT22;17437;47.188;8.896;2023-04-24T13:38:16;16.50;99.90
30678;DHT22;17437;47.188;8.896;2023-04-24T13:40:48;16.20;99.90
30678;DHT22;17437;47.188;8.896;2023-04-24T13:43:19;16.00;99.90
30678;DHT22;17437;47.188;8.896;2023-04-24T13:45:51;15.70;99.90
30678;DHT22;17437;47.188;8.896;2023-04-24T13:48:23;15.60;99.90
30678;DHT22;17437;47.188;8.896;2023-04-24T13:50:56;15.50;99.90
30678;DHT22;17437;47.188;8.896;2023-04-24T13:53:28;15.30;99.90
30678;DHT22;17437;47.188;8.896;2023-04-24T13:55:59;15.20;99.90
30678;DHT22;17437;47.188;8.896;2023-04-24T13:58:31;15.20;99.90
30678;DHT22;17437;47.188;8.896;2023-04-24T14:01:02;15.00;99.90
30678;DHT22;17437;47.188;8.896;2023-04-24T14:03:35;14.70;99.90
30678;DHT22;17437;47.188;8.896;2023-04-24T14:06:08;14.60;99.90
30678;DHT22;17437;47.188;8.896;2023-04-24T14:08:40;14.70;99.90
30678;DHT22;17437;47.188;8.896;2023-04-24T14:11:11;14.90;99.90
30678;DHT22;17437;47.188;8.896;2023-04-24T14:13:43;14.70;99.90
30678;DHT22;17437;47.188;8.896;2023-04-24T14:16:16;14.50;99.90
30678;DHT22;17437;47.188;8.896;2023-04-24T14:18:49;14.60;99.90
30678;DHT22;17437;47.188;8.896;2023-04-24T14:21:21;14.50;99.90
30678;DHT22;17437;47.188;8.896;2023-04-24T14:23:52;14.50;99.90
30678;DHT22;17437;47.188;8.896;2023-04-24T14:26:24;14.70;99.90
30678;DHT22;17437;47.188;8.896;2023-04-24T14:28:56;14.90;99.90
30678;DHT22;17437;47.188;8.896;2023-04-24T14:31:30;15.20;99.90
30678;DHT22;17437;47.188;8.896;2023-04-24T14:34:02;15.50;99.90
30678;DHT22;17437;47.188;8.896;2023-04-24T14:36:33;15.80;99.90
30678;DHT22;17437;47.188;8.896;2023-04-24T14:39:05;16.00;99.90
30678;DHT22;17437;47.188;8.896;2023-04-24T14:41:37;16.10;99.90
30678;DHT22;17437;47.188;8.896;2023-04-24T14:44:09;16.20;99.90
30678;DHT22;17437;47.188;8.896;2023-04-24T14:46:41;16.20;99.90
30678;DHT22;17437;47.188;8.896;2023-04-24T14:49:13;16.20;99.90
30678;DHT22;17437;47.188;8.896;2023-04-24T14:51:45;16.00;99.90
30678;DHT22;17437;47.188;8.896;2023-04-24T14:54:16;16.10;99.90
30678;DHT22;17437;47.188;8.896;2023-04-24T14:56:48;16.30;99.90
30678;DHT22;17437;47.188;8.896;2023-04-24T14:59:19;16.40;99.90
30678;DHT22;17437;47.188;8.896;2023-04-24T15:01:51;16.40;99.90
30678;DHT22;17437;47.188;8.896;2023-04-24T15:04:24;15.90;99.90
30678;DHT22;17437;47.188;8.896;2023-04-24T15:06:56;15.80;99.90
30678;DHT22;17437;47.188;8.896;2023-04-24T15:09:28;16.00;99.90
30678;DHT22;17437;47.188;8.896;2023-04-24T15:12:01;16.30;99.90
30678;DHT22;17437;47.188;8.896;2023-04-24T15:14:32;16.50;99.90
30678;DHT22;17437;47.188;8.896;2023-04-24T15:17:04;16.40;99.90
30678;DHT22;17437;47.188;8.896;2023-04-24T15:19:37;16.50;99.90
30678;DHT22;17437;47.188;8.896;2023-04-24T15:22:09;16.30;99.90
30678;DHT22;17437;47.188;8.896;2023-04-24T15:24:41;15.90;99.90
30678;DHT22;17437;47.188;8.896;2023-04-24T15:27:12;15.30;99.90
30678;DHT22;17437;47.188;8.896;2023-04-24T15:29:44;14.90;99.90
30678;DHT22;17437;47.188;8.896;2023-04-24T15:32:15;14.60;99.90
30678;DHT22;17437;47.188;8.896;2023-04-24T15:34:46;14.50;99.90
30678;DHT22;17437;47.188;8.896;2023-04-24T15:37:20;14.30;99.90
30678;DHT22;17437;47.188;8.896;2023-04-24T15:39:51;14.20;99.90
30678;DHT22;17437;47.188;8.896;2023-04-24T15:42:23;14.10;99.90
30678;DHT22;17437;47.188;8.896;2023-04-24T15:44:54;14.00;99.90
30678;DHT22;17437;47.188;8.896;2023-04-24T15:47:26;13.90;99.90
30678;DHT22;17437;47.188;8.896;2023-04-24T15:49:58;13.80;99.90
30678;DHT22;17437;47.188;8.896;2023-04-24T15:52:29;13.70;99.90
30678;DHT22;17437;47.188;8.896;2023-04-24T15:55:02;13.70;99.90
30678;DHT22;17437;47.188;8.896;2023-04-24T15:57:33;13.70;99.90
30678;DHT22;17437;47.188;8.896;2023-04-24T16:00:07;13.60;99.90
30678;DHT22;17437;47.188;8.896;2023-04-24T16:02:40;13.50;99.90
30678;DHT22;17437;47.188;8.896;2023-04-24T16:05:12;13.50;99.90
30678;DHT22;17437;47.188;8.896;2023-04-24T16:07:43;13.50;99.90